Time;durP1;ratioP1;P1;durP2;ratioP2;P2;SDS_P1;SDS_P2;PMS_P1;PMS_P2;Temp;Humidity;BMP_temperature;BMP_pressure;BME280_temperature;BME280_humidity;BME280_pressure;Samples;Min_cycle;Max_cycle;Signal;HPM_P1;HPM_P2
2021/03/26 00:01:41;;;;;;;15.98;8.43;;;;;;;;;;5053180;28;20471;-56
2021/03/26 00:04:07;;;;;;;11.45;8.20;;;;;;;;;;5054510;28;20055;-58
2021/03/26 00:06:40;;;;;;;15.45;8.63;;;;;;;;;;5054174;28;20459;-58
2021/03/26 00:09:12;;;;;;;10.25;7.13;;;;;;;;;;5036809;28;20013;-57
2021/03/26 00:11:41;;;;;;;11.27;7.53;;;;;;;;;;5053776;28;20025;-57
2021/03/26 00:14:18;;;;;;;9.95;6.90;;;;;;;;;;5054682;28;20033;-55
2021/03/26 00:16:50;;;;;;;17.30;8.95;;;;;;;;;;5054269;28;20025;-57
2021/03/26 00:19:24;;;;;;;12.63;7.68;;;;;;;;;;5054225;28;20041;-57
2021/03/26 00:21:51;;;;;;;12.30;7.43;;;;;;;;;;5053802;28;20041;-57
2021/03/26 00:24:28;;;;;;;9.65;7.78;;;;;;;;;;5020326;28;20033;-56
2021/03/26 00:26:58;;;;;;;8.85;7.30;;;;;;;;;;5049297;28;20037;-57
2021/03/26 00:32:32;;;;;;;7.90;6.63;;;;;;;;;;5054172;28;20033;-54
2021/03/26 00:35:01;;;;;;;12.05;6.85;;;;;;;;;;5054085;28;20033;-57
2021/03/26 00:37:32;;;;;;;8.63;6.45;;;;;;;;;;5053702;28;20036;-56
2021/03/26 00:40:10;;;;;;;8.73;6.70;;;;;;;;;;5054286;28;20037;-58
2021/03/26 00:42:51;;;;;;;8.65;5.90;;;;;;;;;;5036532;28;20033;-56
2021/03/26 00:45:25;;;;;;;10.50;7.00;;;;;;;;;;5053680;28;20025;-57
2021/03/26 00:48:02;;;;;;;10.52;7.18;;;;;;;;;;5053270;28;20075;-57
2021/03/26 00:50:31;;;;;;;10.25;6.05;;;;;;;;;;5035643;28;20116;-57
2021/03/26 00:53:05;;;;;;;8.57;6.10;;;;;;;;;;5053300;28;20022;-57
2021/03/26 00:55:52;;;;;;;9.18;6.68;;;;;;;;;;5053518;28;20025;-55
2021/03/26 00:58:19;;;;;;;8.05;6.93;;;;;;;;;;5053834;28;20021;-58
2021/03/26 01:01:04;;;;;;;10.50;6.53;;;;;;;;;;5053632;28;20033;-56
2021/03/26 01:03:31;;;;;;;8.73;6.72;;;;;;;;;;5035164;28;20033;-57
2021/03/26 01:05:59;;;;;;;9.82;7.18;;;;;;;;;;5053376;28;20539;-56
2021/03/26 01:08:31;;;;;;;12.02;7.35;;;;;;;;;;5054134;28;20017;-55
2021/03/26 01:11:09;;;;;;;11.10;7.25;;;;;;;;;;5035198;28;20120;-56
2021/03/26 01:13:40;;;;;;;8.40;6.43;;;;;;;;;;5053395;28;20032;-57
2021/03/26 01:16:11;;;;;;;15.48;6.93;;;;;;;;;;5054192;28;20033;-55
2021/03/26 01:18:42;;;;;;;11.90;7.38;;;;;;;;;;5035409;28;20483;-58
2021/03/26 01:21:19;;;;;;;9.35;7.15;;;;;;;;;;5053121;28;20029;-57
2021/03/26 01:23:48;;;;;;;8.60;6.70;;;;;;;;;;5053345;28;20036;-55
2021/03/26 01:26:14;;;;;;;14.57;7.57;;;;;;;;;;5053200;28;20036;-57
2021/03/26 01:28:43;;;;;;;10.35;7.32;;;;;;;;;;5052897;28;20036;-58
2021/03/26 01:31:13;;;;;;;8.27;6.68;;;;;;;;;;5052817;28;20199;-57
2021/03/26 01:33:47;;;;;;;10.02;6.70;;;;;;;;;;5053432;28;20021;-57
2021/03/26 01:36:18;;;;;;;8.73;6.57;;;;;;;;;;5035492;28;20036;-57
2021/03/26 01:38:56;;;;;;;8.80;7.72;;;;;;;;;;5053091;28;20029;-56
2021/03/26 01:41:28;;;;;;;12.45;7.47;;;;;;;;;;5035653;28;20378;-57
2021/03/26 01:43:56;;;;;;;9.73;6.30;;;;;;;;;;5035186;28;20471;-57
2021/03/26 01:46:28;;;;;;;9.70;6.63;;;;;;;;;;5052921;28;20025;-57
2021/03/26 01:49:00;;;;;;;8.48;7.20;;;;;;;;;;5053032;28;20104;-57
2021/03/26 01:51:35;;;;;;;8.60;6.45;;;;;;;;;;5053248;28;20032;-56
2021/03/26 01:54:12;;;;;;;8.98;6.78;;;;;;;;;;5035382;28;20370;-55
2021/03/26 01:56:44;;;;;;;11.75;7.00;;;;;;;;;;5034864;28;20045;-55
2021/03/26 01:59:13;;;;;;;9.45;6.30;;;;;;;;;;5056328;28;20035;-56
2021/03/26 02:04:45;;;;;;;9.18;6.43;;;;;;;;;;5056814;28;20033;-58
2021/03/26 02:07:18;;;;;;;9.90;6.75;;;;;;;;;;5056353;28;20033;-56
2021/03/26 02:09:48;;;;;;;11.80;6.20;;;;;;;;;;5056508;28;20044;-57
2021/03/26 02:12:31;;;;;;;9.25;6.82;;;;;;;;;;5056719;28;20025;-58
2021/03/26 02:15:19;;;;;;;11.77;7.65;;;;;;;;;;5038044;28;20025;-58
2021/03/26 02:17:58;;;;;;;9.23;6.63;;;;;;;;;;5056778;28;20462;-58
2021/03/26 02:20:42;;;;;;;10.27;6.30;;;;;;;;;;5055847;28;20037;-57
2021/03/26 02:23:22;;;;;;;9.05;6.70;;;;;;;;;;5057302;28;20021;-57
2021/03/26 02:25:48;;;;;;;10.98;6.55;;;;;;;;;;5041668;28;20115;-57
2021/03/26 02:28:20;;;;;;;9.73;6.85;;;;;;;;;;5055747;28;20029;-55
2021/03/26 02:30:53;;;;;;;14.18;7.82;;;;;;;;;;5056349;28;20028;-57
2021/03/26 02:33:26;;;;;;;11.05;6.90;;;;;;;;;;5056382;28;20516;-57
2021/03/26 02:36:01;;;;;;;12.82;7.57;;;;;;;;;;5056235;28;20021;-56
2021/03/26 02:38:46;;;;;;;13.40;7.78;;;;;;;;;;5037884;28;20445;-56
2021/03/26 02:41:17;;;;;;;8.85;6.05;;;;;;;;;;5038390;28;20036;-57
2021/03/26 02:44:09;;;;;;;9.75;7.57;;;;;;;;;;5055832;28;20025;-57
2021/03/26 02:47:03;;;;;;;;;;;;;;;;;;;;;
2021/03/26 02:49:32;;;;;;;11.88;7.97;;;;;;;;;;5055807;28;20047;-54
2021/03/26 02:52:17;;;;;;;8.10;7.00;;;;;;;;;;5056391;28;20029;-57
2021/03/26 02:54:59;;;;;;;8.02;5.97;;;;;;;;;;5038216;28;20051;-56
2021/03/26 02:57:39;;;;;;;13.25;7.85;;;;;;;;;;5055601;28;20478;-55
2021/03/26 03:00:29;;;;;;;8.95;6.72;;;;;;;;;;5055687;28;20413;-55
2021/03/26 03:03:01;;;;;;;8.60;7.30;;;;;;;;;;5055668;28;20029;-55
2021/03/26 03:05:39;;;;;;;9.65;6.55;;;;;;;;;;5055579;28;20072;-57
2021/03/26 03:08:18;;;;;;;7.75;6.10;;;;;;;;;;5055246;28;20107;-57
2021/03/26 03:10:55;;;;;;;11.13;8.20;;;;;;;;;;5054679;28;20029;-57
2021/03/26 03:13:36;;;;;;;10.73;7.00;;;;;;;;;;5055433;28;20025;-57
2021/03/26 03:16:11;;;;;;;11.13;8.13;;;;;;;;;;5055294;28;20336;-56
2021/03/26 03:18:55;;;;;;;14.73;6.97;;;;;;;;;;5055045;28;20036;-53
2021/03/26 03:21:38;;;;;;;10.68;7.55;;;;;;;;;;5055558;28;20033;-57
2021/03/26 03:24:28;;;;;;;8.52;6.55;;;;;;;;;;5037643;28;20076;-56
2021/03/26 03:27:16;;;;;;;13.40;7.82;;;;;;;;;;5037224;28;20036;-56
2021/03/26 03:30:09;;;;;;;11.75;7.63;;;;;;;;;;5055780;28;20035;-57
2021/03/26 03:32:45;;;;;;;;;;;;;;;;;;;;;
2021/03/26 03:38:25;;;;;;;11.00;8.43;;;;;;;;;;5046134;28;20028;-57
2021/03/26 03:40:55;;;;;;;11.90;7.22;;;;;;;;;;5054740;28;20043;-56
2021/03/26 03:44:04;;;;;;;11.20;7.15;;;;;;;;;;5035531;28;20049;-57
2021/03/26 03:46:48;;;;;;;9.75;7.20;;;;;;;;;;5053094;28;20061;-57
2021/03/26 03:49:21;;;;;;;10.40;7.32;;;;;;;;;;5036633;28;20025;-56
2021/03/26 03:52:20;;;;;;;11.98;8.27;;;;;;;;;;5036855;28;20353;-57
2021/03/26 03:55:06;;;;;;;10.30;7.35;;;;;;;;;;5054055;28;20094;-54
2021/03/26 03:57:51;;;;;;;12.13;7.60;;;;;;;;;;5036199;28;20052;-57
2021/03/26 04:00:31;;;;;;;11.52;7.78;;;;;;;;;;5054404;28;20364;-57
2021/03/26 04:03:15;;;;;;;9.98;7.72;;;;;;;;;;5054663;28;20452;-57
2021/03/26 04:05:52;;;;;;;10.25;7.75;;;;;;;;;;5054811;28;20021;-57
2021/03/26 04:08:44;;;;;;;10.05;7.13;;;;;;;;;;5055055;28;20021;-57
2021/03/26 04:11:23;;;;;;;10.98;7.90;;;;;;;;;;5036202;28;20113;-55
2021/03/26 04:14:11;;;;;;;14.60;7.30;;;;;;;;;;5054703;28;20099;-56
2021/03/26 04:16:42;;;;;;;11.23;8.10;;;;;;;;;;5034422;28;20477;-54
2021/03/26 04:19:51;;;;;;;10.38;6.45;;;;;;;;;;5054126;28;20079;-56
2021/03/26 04:22:21;;;;;;;13.70;8.40;;;;;;;;;;5053742;28;20040;-56
2021/03/26 04:25:11;;;;;;;13.32;8.35;;;;;;;;;;5054114;28;20036;-54
2021/03/26 04:28:07;;;;;;;8.60;7.68;;;;;;;;;;5041758;28;20061;-57
2021/03/26 04:30:56;;;;;;;12.77;8.57;;;;;;;;;;5053911;28;20059;-57
2021/03/26 04:36:39;;;;;;;10.75;8.15;;;;;;;;;;5044599;28;20029;-53
2021/03/26 04:39:29;;;;;;;;;;;;;;;;;;;;;
2021/03/26 04:42:19;;;;;;;13.55;8.75;;;;;;;;;;5041947;28;20045;-57
2021/03/26 04:45:07;;;;;;;;;;;;;;;;;;;;;
2021/03/26 04:48:02;;;;;;;8.43;7.28;;;;;;;;;;5054071;28;20047;-56
2021/03/26 04:50:36;;;;;;;15.10;8.98;;;;;;;;;;5011294;28;20382;-56
2021/03/26 04:53:17;;;;;;;12.60;8.30;;;;;;;;;;5053445;28;20017;-57
2021/03/26 04:55:48;;;;;;;13.57;8.23;;;;;;;;;;5052685;28;20032;-57
2021/03/26 04:58:42;;;;;;;10.75;8.70;;;;;;;;;;5053729;28;20025;-57
2021/03/26 05:01:18;;;;;;;15.20;8.77;;;;;;;;;;5053574;28;20040;-56
2021/03/26 05:07:14;;;;;;;14.98;8.75;;;;;;;;;;5053936;28;20347;-57
2021/03/26 05:09:57;;;;;;;12.60;7.93;;;;;;;;;;5039844;28;20037;-57
2021/03/26 05:12:33;;;;;;;12.05;8.85;;;;;;;;;;5053317;28;20052;-57
2021/03/26 05:15:22;;;;;;;;;;;;;;;;;;;;;
2021/03/26 05:17:57;;;;;;;16.23;8.35;;;;;;;;;;5052993;28;20025;-58
2021/03/26 05:20:37;;;;;;;16.63;9.65;;;;;;;;;;5053408;28;20441;-56
2021/03/26 05:23:06;;;;;;;18.38;10.07;;;;;;;;;;5053055;28;20494;-56
2021/03/26 05:25:38;;;;;;;9.90;8.02;;;;;;;;;;5053032;28;20061;-57
2021/03/26 05:28:29;;;;;;;12.57;9.20;;;;;;;;;;5035680;28;20045;-56
2021/03/26 05:30:57;;;;;;;13.63;10.43;;;;;;;;;;5053143;28;20024;-57
2021/03/26 05:33:38;;;;;;;12.90;11.38;;;;;;;;;;5055649;28;20021;-57
2021/03/26 05:36:26;;;;;;;16.92;10.93;;;;;;;;;;5057032;28;20080;-55
2021/03/26 05:39:05;;;;;;;12.40;10.73;;;;;;;;;;5057746;28;20025;-57
2021/03/26 05:41:41;;;;;;;18.00;11.95;;;;;;;;;;5039761;28;20049;-57
2021/03/26 05:44:21;;;;;;;17.83;11.23;;;;;;;;;;5057020;28;20025;-57
2021/03/26 05:47:11;;;;;;;15.90;11.65;;;;;;;;;;5056924;28;20032;-57
2021/03/26 05:49:40;;;;;;;13.00;10.38;;;;;;;;;;5057557;28;20112;-56
2021/03/26 05:52:07;;;;;;;18.33;11.63;;;;;;;;;;5038909;28;20029;-57
2021/03/26 05:54:59;;;;;;;11.68;8.43;;;;;;;;;;5056316;28;20056;-57
2021/03/26 05:57:47;;;;;;;11.18;10.07;;;;;;;;;;5055832;28;20088;-58
2021/03/26 06:00:28;;;;;;;18.70;10.35;;;;;;;;;;5038331;28;20091;-55
2021/03/26 06:03:17;;;;;;;14.20;11.88;;;;;;;;;;5056275;28;20021;-57
2021/03/26 06:06:03;;;;;;;15.02;11.25;;;;;;;;;;5056230;28;20463;-58
2021/03/26 06:08:55;;;;;;;11.43;9.93;;;;;;;;;;5056466;28;20056;-58
2021/03/26 06:11:51;;;;;;;13.02;9.50;;;;;;;;;;5057290;28;20029;-58
2021/03/26 06:14:24;;;;;;;10.80;9.48;;;;;;;;;;5056407;28;20037;-58
2021/03/26 06:17:24;;;;;;;13.48;9.38;;;;;;;;;;5056626;28;20029;-57
2021/03/26 06:20:09;;;;;;;11.75;9.57;;;;;;;;;;5056297;28;20033;-57
2021/03/26 06:23:06;;;;;;;11.70;8.65;;;;;;;;;;5056377;28;20033;-58
2021/03/26 06:25:51;;;;;;;12.13;7.90;;;;;;;;;;5038274;28;20025;-58
2021/03/26 06:28:19;;;;;;;10.18;9.07;;;;;;;;;;5056495;28;20032;-57
2021/03/26 06:31:13;;;;;;;14.70;8.25;;;;;;;;;;5055922;28;20425;-58
2021/03/26 06:34:01;;;;;;;11.45;8.65;;;;;;;;;;5055844;28;20112;-58
2021/03/26 06:36:55;;;;;;;14.75;8.60;;;;;;;;;;5056379;28;20025;-57
2021/03/26 06:40:25;;;;;;;11.80;8.43;;;;;;;;;;5056121;28;20409;-57
2021/03/26 06:43:08;;;;;;;13.05;10.13;;;;;;;;;;5047329;28;20021;-56
2021/03/26 06:45:49;;;;;;;16.35;10.40;;;;;;;;;;5038021;28;20497;-57
2021/03/26 06:48:50;;;;;;;16.08;10.35;;;;;;;;;;5055430;28;20028;-57
2021/03/26 06:54:17;;;;;;;13.82;10.32;;;;;;;;;;5055479;28;20064;-57
2021/03/26 06:57:03;;;;;;;16.60;11.75;;;;;;;;;;5055064;28;20053;-57
2021/03/26 06:59:49;;;;;;;13.27;10.45;;;;;;;;;;5054674;28;20052;-57
2021/03/26 07:02:37;;;;;;;14.25;10.38;;;;;;;;;;5055119;28;20028;-57
2021/03/26 07:05:32;;;;;;;13.75;10.40;;;;;;;;;;5055557;28;20033;-57
2021/03/26 07:08:28;;;;;;;10.27;9.13;;;;;;;;;;5055249;28;20017;-57
2021/03/26 07:11:25;;;;;;;12.98;10.02;;;;;;;;;;5038498;28;20037;-55
2021/03/26 07:14:04;;;;;;;12.70;9.93;;;;;;;;;;5054852;28;20040;-58
2021/03/26 07:20:04;;;;;;;11.52;10.15;;;;;;;;;;5054916;28;20037;-58
2021/03/26 07:22:49;;;;;;;11.50;9.13;;;;;;;;;;5041427;28;20033;-57
2021/03/26 07:25:32;;;;;;;17.50;9.50;;;;;;;;;;5054872;28;20025;-58
2021/03/26 07:28:33;;;;;;;12.60;9.93;;;;;;;;;;5054988;28;20036;-56
2021/03/26 07:37:27;;;;;;;13.57;9.20;;;;;;;;;;4979595;28;20117;-57
2021/03/26 07:40:03;;;;;;;11.48;9.75;;;;;;;;;;5036480;28;20124;-57
2021/03/26 07:42:54;;;;;;;16.05;9.82;;;;;;;;;;5054887;28;20029;-58
2021/03/26 07:45:42;;;;;;;11.32;8.50;;;;;;;;;;5036929;28;20029;-58
2021/03/26 07:48:08;;;;;;;9.85;8.82;;;;;;;;;;5054933;28;20521;-57
2021/03/26 07:50:37;;;;;;;18.42;9.02;;;;;;;;;;5054474;28;20059;-57
2021/03/26 07:53:25;;;;;;;12.40;9.65;;;;;;;;;;5054736;28;20032;-57
2021/03/26 07:56:06;;;;;;;10.43;7.68;;;;;;;;;;5053615;28;20423;-56
2021/03/26 07:58:58;;;;;;;;;;;;;;;;;;;;;
2021/03/26 08:01:41;;;;;;;14.38;8.63;;;;;;;;;;5051634;28;20049;-57
2021/03/26 08:04:18;;;;;;;10.00;8.05;;;;;;;;;;5053939;28;20029;-56
2021/03/26 08:07:03;;;;;;;13.88;9.27;;;;;;;;;;5019799;28;20086;-59
2021/03/26 08:09:38;;;;;;;10.43;8.55;;;;;;;;;;5054812;28;20036;-57
2021/03/26 08:12:26;;;;;;;10.15;8.18;;;;;;;;;;5053921;28;20024;-57
2021/03/26 08:18:30;;;;;;;12.82;8.38;;;;;;;;;;5054388;28;20036;-58
2021/03/26 08:21:03;;;;;;;17.13;8.93;;;;;;;;;;5054849;28;20120;-58
2021/03/26 08:23:43;;;;;;;13.10;8.25;;;;;;;;;;5054646;28;20039;-58
2021/03/26 08:26:24;;;;;;;11.30;7.28;;;;;;;;;;5053972;28;20475;-58
2021/03/26 08:28:53;;;;;;;;;;;;;;;;;;5036106;28;20480;-58
2021/03/26 08:31:38;;;;;;;9.40;8.30;;;;;;;;;;5035944;28;19995;-58
2021/03/26 08:34:07;;;;;;;8.80;7.10;;;;;;;;;;5036418;28;20025;-58
2021/03/26 08:36:55;;;;;;;11.35;7.43;;;;;;;;;;5053344;28;20390;-58
2021/03/26 08:39:45;;;;;;;15.38;7.78;;;;;;;;;;5053075;28;20060;-59
2021/03/26 08:42:37;;;;;;;9.27;7.88;;;;;;;;;;5036775;28;20021;-58
2021/03/26 08:45:25;;;;;;;12.27;7.55;;;;;;;;;;5053376;28;20098;-58
2021/03/26 08:48:13;;;;;;;11.02;7.35;;;;;;;;;;5054715;28;20355;-59
2021/03/26 08:51:02;;;;;;;9.90;5.95;;;;;;;;;;5035687;28;20041;-59
2021/03/26 08:53:37;;;;;;;12.85;7.95;;;;;;;;;;5035536;28;20028;-58
2021/03/26 08:56:24;;;;;;;15.18;7.22;;;;;;;;;;5052836;28;20102;-58
2021/03/26 08:59:21;;;;;;;10.18;7.25;;;;;;;;;;5052258;28;20435;-58
2021/03/26 09:02:13;;;;;;;10.15;6.78;;;;;;;;;;5034849;28;20033;-58
2021/03/26 09:04:45;;;;;;;10.23;7.45;;;;;;;;;;5053001;28;20029;-57
2021/03/26 09:07:39;;;;;;;11.30;6.68;;;;;;;;;;5035808;28;20040;-58
2021/03/26 09:10:15;;;;;;;11.95;6.78;;;;;;;;;;5055842;28;20032;-58
2021/03/26 09:13:19;;;;;;;11.57;7.93;;;;;;;;;;5055827;28;20032;-58
2021/03/26 09:15:54;;;;;;;13.15;8.30;;;;;;;;;;4958665;28;20473;-58
2021/03/26 09:18:43;;;;;;;8.57;7.05;;;;;;;;;;4975048;28;20038;-59
2021/03/26 09:21:22;;;;;;;10.68;8.07;;;;;;;;;;4974857;28;20125;-58
2021/03/26 09:23:48;;;;;;;8.30;6.93;;;;;;;;;;5007049;28;20447;-58
2021/03/26 09:26:36;;;;;;;10.27;7.45;;;;;;;;;;5056092;28;20478;-58
2021/03/26 09:29:06;;;;;;;11.68;7.75;;;;;;;;;;5038044;28;20421;-59
2021/03/26 09:31:44;;;;;;;12.57;8.05;;;;;;;;;;5056418;28;20036;-58
2021/03/26 09:34:46;;;;;;;9.07;7.95;;;;;;;;;;5022635;28;20056;-59
2021/03/26 09:37:17;;;;;;;13.63;7.93;;;;;;;;;;5005389;28;20025;-58
2021/03/26 09:39:49;;;;;;;11.55;8.15;;;;;;;;;;5037500;28;20036;-58
2021/03/26 09:42:33;;;;;;;10.57;7.80;;;;;;;;;;5037589;28;20039;-58
2021/03/26 09:45:13;;;;;;;9.35;8.35;;;;;;;;;;5056122;28;20021;-58
2021/03/26 09:47:49;;;;;;;12.90;8.07;;;;;;;;;;5056007;28;20425;-58
2021/03/26 09:50:36;;;;;;;12.60;7.43;;;;;;;;;;5055312;28;20031;-58
2021/03/26 09:53:12;;;;;;;8.32;7.30;;;;;;;;;;5037725;28;20037;-59
2021/03/26 09:55:42;;;;;;;12.75;8.90;;;;;;;;;;4952712;28;2951062;-59
2021/03/26 09:58:30;;;;;;;14.02;8.70;;;;;;;;;;5038681;28;20142;-58
2021/03/26 10:01:02;;;;;;;10.70;8.15;;;;;;;;;;5038302;28;20517;-58
2021/03/26 10:03:48;;;;;;;10.00;7.88;;;;;;;;;;5038756;28;20041;-58
2021/03/26 10:06:35;;;;;;;9.05;7.40;;;;;;;;;;5038568;28;20033;-58
2021/03/26 10:09:30;;;;;;;10.02;7.18;;;;;;;;;;5056355;28;20505;-58
2021/03/26 10:12:22;;;;;;;11.73;7.28;;;;;;;;;;5056017;28;20033;-59
2021/03/26 10:14:56;;;;;;;10.80;8.15;;;;;;;;;;5056320;28;20096;-58
2021/03/26 10:17:25;;;;;;;12.85;7.63;;;;;;;;;;5038494;28;20021;-58
2021/03/26 10:20:00;;;;;;;12.93;8.35;;;;;;;;;;5038049;28;20025;-59
2021/03/26 10:22:32;;;;;;;12.45;8.05;;;;;;;;;;5038129;28;20021;-59
2021/03/26 10:25:03;;;;;;;12.27;8.70;;;;;;;;;;5038758;28;20075;-59
2021/03/26 10:27:34;;;;;;;;;;;;;;;;;;5038994;28;20095;-59
2021/03/26 10:30:06;;;;;;;9.10;5.72;;;;;;;;;;5037852;28;19905;-58
2021/03/26 10:32:39;;;;;;;11.13;8.40;;;;;;;;;;5056336;28;20025;-58
2021/03/26 10:35:22;;;;;;;11.18;7.20;;;;;;;;;;5038305;28;20032;-59
2021/03/26 10:37:58;;;;;;;10.25;7.72;;;;;;;;;;5054918;28;20029;-59
2021/03/26 10:40:34;;;;;;;9.25;7.25;;;;;;;;;;5056571;28;20060;-59
2021/03/26 10:43:19;;;;;;;9.30;7.05;;;;;;;;;;5037689;28;20087;-59
2021/03/26 10:46:04;;;;;;;8.80;6.93;;;;;;;;;;5037438;28;20394;-59
2021/03/26 10:48:36;;;;;;;10.00;6.68;;;;;;;;;;5055430;28;20571;-59
2021/03/26 10:51:25;;;;;;;7.53;6.22;;;;;;;;;;5037553;28;20029;-59
2021/03/26 10:53:54;;;;;;;7.68;6.15;;;;;;;;;;5054495;28;20033;-58
2021/03/26 10:56:37;;;;;;;9.70;6.07;;;;;;;;;;5020805;28;20074;-59
2021/03/26 10:59:19;;;;;;;10.30;6.82;;;;;;;;;;5037301;28;20029;-59
2021/03/26 11:01:47;;;;;;;7.60;6.40;;;;;;;;;;5038657;28;20036;-59
2021/03/26 11:04:51;;;;;;;6.63;5.15;;;;;;;;;;5037142;28;20025;-59
2021/03/26 11:07:21;;;;;;;8.18;4.15;;;;;;;;;;4954883;29;20481;-58
2021/03/26 11:09:49;;;;;;;7.07;4.37;;;;;;;;;;4954798;28;20024;-58
2021/03/26 11:12:24;;;;;;;5.20;3.92;;;;;;;;;;5006539;28;20029;-59
2021/03/26 11:15:26;;;;;;;7.15;3.78;;;;;;;;;;5036988;28;20048;-58
2021/03/26 11:18:02;;;;;;;11.82;4.28;;;;;;;;;;5053998;28;20502;-58
2021/03/26 11:20:32;;;;;;;4.88;3.45;;;;;;;;;;5055597;28;20037;-59
2021/03/26 11:23:23;;;;;;;8.63;4.82;;;;;;;;;;5037497;28;20517;-59
2021/03/26 11:25:52;;;;;;;5.57;4.03;;;;;;;;;;5037538;28;20501;-59
2021/03/26 11:28:22;;;;;;;5.38;3.58;;;;;;;;;;5055355;28;20067;-59
2021/03/26 11:30:51;;;;;;;5.88;3.47;;;;;;;;;;5036408;28;20395;-59
2021/03/26 11:33:22;;;;;;;8.23;3.70;;;;;;;;;;5020307;28;20052;-59
2021/03/26 11:35:49;;;;;;;3.90;2.92;;;;;;;;;;5055407;28;20367;-59
2021/03/26 11:38:19;;;;;;;6.18;3.60;;;;;;;;;;5036488;28;20471;-58
2021/03/26 11:41:07;;;;;;;10.15;4.55;;;;;;;;;;5037315;28;20029;-59
2021/03/26 11:43:44;;;;;;;5.13;3.75;;;;;;;;;;5055190;28;20040;-59
2021/03/26 11:46:33;;;;;;;5.70;3.70;;;;;;;;;;5036820;28;20111;-59
2021/03/26 11:49:05;;;;;;;5.18;3.33;;;;;;;;;;5036054;28;20044;-58
2021/03/26 11:51:38;;;;;;;4.35;3.17;;;;;;;;;;5019931;28;20029;-59
2021/03/26 11:54:10;;;;;;;5.07;2.78;;;;;;;;;;5055559;28;20055;-59
2021/03/26 11:56:39;;;;;;;6.45;3.30;;;;;;;;;;5019538;28;20132;-59
2021/03/26 11:59:24;;;;;;;6.43;3.72;;;;;;;;;;5054224;28;20025;-59
2021/03/26 12:01:56;;;;;;;5.97;3.85;;;;;;;;;;5053640;28;20037;-58
2021/03/26 12:04:26;;;;;;;6.47;4.93;;;;;;;;;;5054452;28;20021;-59
2021/03/26 12:07:04;;;;;;;7.38;4.03;;;;;;;;;;5036653;28;20025;-59
2021/03/26 12:09:35;;;;;;;7.30;4.68;;;;;;;;;;5036350;28;20025;-59
2021/03/26 12:12:27;;;;;;;7.15;4.90;;;;;;;;;;5036167;28;20017;-59
2021/03/26 12:15:03;;;;;;;5.05;3.75;;;;;;;;;;5036783;28;20454;-58
2021/03/26 12:17:35;;;;;;;6.03;4.68;;;;;;;;;;5036602;28;20025;-59
2021/03/26 12:20:06;;;;;;;6.63;3.88;;;;;;;;;;5053571;28;20067;-59
2021/03/26 12:22:41;;;;;;;4.53;3.65;;;;;;;;;;5054023;28;20475;-59
2021/03/26 12:25:23;;;;;;;4.90;3.53;;;;;;;;;;5035445;28;20060;-59
2021/03/26 12:27:51;;;;;;;6.03;3.63;;;;;;;;;;5036224;28;20029;-59
2021/03/26 12:30:28;;;;;;;7.35;3.70;;;;;;;;;;5054092;28;20120;-59
2021/03/26 12:32:57;;;;;;;5.32;3.67;;;;;;;;;;5053446;28;20061;-59
2021/03/26 12:35:26;;;;;;;3.85;2.80;;;;;;;;;;5036305;28;20367;-59
2021/03/26 12:38:00;;;;;;;4.53;2.92;;;;;;;;;;5053350;28;20051;-58
2021/03/26 12:40:29;;;;;;;4.70;3.13;;;;;;;;;;5053916;28;20413;-59
2021/03/26 12:43:02;;;;;;;7.10;3.35;;;;;;;;;;5036047;28;20021;-59
2021/03/26 12:45:35;;;;;;;6.57;2.42;;;;;;;;;;5053555;28;20028;-58
2021/03/26 12:48:12;;;;;;;3.70;2.58;;;;;;;;;;5053504;28;20154;-59
2021/03/26 12:50:45;;;;;;;5.38;2.30;;;;;;;;;;5036025;28;20033;-59
2021/03/26 12:53:13;;;;;;;4.30;3.17;;;;;;;;;;5035286;28;20029;-59
2021/03/26 12:55:45;;;;;;;5.03;2.33;;;;;;;;;;5053166;28;20029;-59
2021/03/26 12:58:20;;;;;;;6.70;2.97;;;;;;;;;;5053533;28;20025;-59
2021/03/26 13:01:16;;;;;;;6.40;3.10;;;;;;;;;;5053201;28;20037;-59
2021/03/26 13:03:52;;;;;;;6.00;2.90;;;;;;;;;;5036374;28;20375;-59
2021/03/26 13:06:18;;;;;;;7.82;3.40;;;;;;;;;;5053171;28;20467;-59
2021/03/26 13:08:46;;;;;;;5.18;3.13;;;;;;;;;;5036297;28;20167;-59
2021/03/26 13:11:19;;;;;;;5.25;3.70;;;;;;;;;;5053379;28;20386;-59
2021/03/26 13:14:08;;;;;;;4.43;3.08;;;;;;;;;;5053936;28;20029;-59
2021/03/26 13:16:37;;;;;;;5.32;3.85;;;;;;;;;;5053663;28;20028;-59
2021/03/26 13:19:14;;;;;;;5.80;3.67;;;;;;;;;;5053635;28;20459;-59
2021/03/26 13:21:40;;;;;;;4.97;3.53;;;;;;;;;;5052741;28;20079;-59
2021/03/26 13:24:16;;;;;;;5.80;4.30;;;;;;;;;;5035206;28;20032;-59
2021/03/26 13:26:42;;;;;;;5.40;3.58;;;;;;;;;;5054081;28;20029;-59
2021/03/26 13:29:18;;;;;;;5.28;3.95;;;;;;;;;;5035673;28;20084;-59
2021/03/26 13:31:46;;;;;;;4.93;3.25;;;;;;;;;;5053198;28;20070;-59
2021/03/26 13:34:19;;;;;;;6.78;3.75;;;;;;;;;;5036086;28;20126;-59
2021/03/26 13:37:03;;;;;;;5.00;4.05;;;;;;;;;;5053951;28;20328;-59
2021/03/26 13:39:35;;;;;;;4.60;3.45;;;;;;;;;;5035232;28;20470;-59
2021/03/26 13:42:08;;;;;;;5.15;3.75;;;;;;;;;;5053013;28;20024;-59
2021/03/26 13:44:37;;;;;;;4.82;3.05;;;;;;;;;;5053536;28;20029;-59
2021/03/26 13:47:06;;;;;;;3.03;1.90;;;;;;;;;;5019435;28;20167;-59
2021/03/26 13:49:32;;;;;;;5.95;2.47;;;;;;;;;;5053090;28;20028;-59
2021/03/26 13:52:09;;;;;;;4.15;2.53;;;;;;;;;;5053009;28;20371;-59
2021/03/26 13:54:38;;;;;;;5.15;2.75;;;;;;;;;;5056489;28;20019;-58
2021/03/26 13:57:07;;;;;;;3.40;2.22;;;;;;;;;;5056471;28;20554;-59
2021/03/26 14:00:06;;;;;;;3.97;1.75;;;;;;;;;;5038717;28;20052;-59
2021/03/26 14:02:34;;;;;;;3.03;2.03;;;;;;;;;;5012257;28;20029;-59
2021/03/26 14:05:16;;;;;;;5.55;2.00;;;;;;;;;;5022471;28;20025;-59
2021/03/26 14:07:44;;;;;;;7.88;2.10;;;;;;;;;;5056320;28;20025;-59
2021/03/26 14:10:13;;;;;;;4.05;2.38;;;;;;;;;;5056315;28;20025;-59
2021/03/26 14:12:41;;;;;;;3.90;2.40;;;;;;;;;;5057191;28;20024;-59
2021/03/26 14:15:16;;;;;;;6.43;2.78;;;;;;;;;;5039245;28;20025;-59
2021/03/26 14:17:44;;;;;;;3.90;2.30;;;;;;;;;;5038526;28;20021;-59
2021/03/26 14:20:21;;;;;;;4.00;2.45;;;;;;;;;;5056164;28;20037;-59
2021/03/26 14:23:00;;;;;;;3.53;2.17;;;;;;;;;;5038636;28;20403;-59
2021/03/26 14:25:47;;;;;;;4.47;2.53;;;;;;;;;;5056319;28;20032;-59
2021/03/26 14:28:45;;;;;;;6.90;2.28;;;;;;;;;;5056181;28;20372;-58
2021/03/26 14:31:15;;;;;;;3.42;1.85;;;;;;;;;;5012167;28;20044;-59
2021/03/26 14:33:44;;;;;;;3.45;1.83;;;;;;;;;;5055846;28;20024;-59
2021/03/26 14:36:13;;;;;;;4.38;1.75;;;;;;;;;;5055889;28;20025;-59
2021/03/26 14:38:48;;;;;;;5.22;2.22;;;;;;;;;;5055905;28;20498;-59
2021/03/26 14:41:14;;;;;;;4.47;1.98;;;;;;;;;;5055808;28;20043;-59
2021/03/26 14:43:42;;;;;;;3.28;1.25;;;;;;;;;;5056041;28;20451;-59
2021/03/26 14:46:08;;;;;;;2.88;1.48;;;;;;;;;;5055762;28;20029;-59
2021/03/26 14:48:45;;;;;;;2.38;1.63;;;;;;;;;;5056241;28;20029;-59
2021/03/26 14:51:23;;;;;;;3.95;2.38;;;;;;;;;;5038029;28;20025;-59
2021/03/26 14:53:56;;;;;;;3.70;1.88;;;;;;;;;;5055889;28;20056;-59
2021/03/26 14:56:32;;;;;;;3.53;1.85;;;;;;;;;;5037316;28;20052;-59
2021/03/26 14:59:04;;;;;;;2.42;1.50;;;;;;;;;;5037933;28;20035;-59
2021/03/26 15:01:33;;;;;;;2.47;1.45;;;;;;;;;;5055910;28;20458;-59
2021/03/26 15:04:11;;;;;;;4.43;2.35;;;;;;;;;;5055384;28;20467;-59
2021/03/26 15:06:40;;;;;;;3.25;1.73;;;;;;;;;;5054998;28;20021;-59
2021/03/26 15:09:14;;;;;;;3.60;2.00;;;;;;;;;;5054992;28;20107;-59
2021/03/26 15:11:40;;;;;;;9.13;3.63;;;;;;;;;;5055839;28;20074;-60
2021/03/26 15:14:17;;;;;;;2.20;1.70;;;;;;;;;;5037382;28;20401;-59
2021/03/26 15:16:43;;;;;;;3.33;2.00;;;;;;;;;;5037697;28;20471;-60
2021/03/26 15:19:15;;;;;;;4.63;2.40;;;;;;;;;;5037240;28;20170;-60
2021/03/26 15:21:59;;;;;;;4.78;2.03;;;;;;;;;;5055042;28;20033;-60
2021/03/26 15:24:44;;;;;;;5.00;2.55;;;;;;;;;;5037254;28;20021;-59
2021/03/26 15:27:28;;;;;;;3.78;2.08;;;;;;;;;;5054942;28;20017;-59
2021/03/26 15:29:59;;;;;;;9.10;3.35;;;;;;;;;;5054620;28;20028;-59
2021/03/26 15:32:37;;;;;;;3.65;2.53;;;;;;;;;;5054891;28;20024;-59
2021/03/26 15:35:06;;;;;;;3.17;1.73;;;;;;;;;;5054845;28;20075;-59
2021/03/26 15:37:32;;;;;;;3.33;1.88;;;;;;;;;;5054946;28;20028;-59
2021/03/26 15:40:13;;;;;;;3.58;2.42;;;;;;;;;;5054774;28;20120;-59
2021/03/26 15:42:46;;;;;;;3.80;2.17;;;;;;;;;;5054737;28;20029;-59
2021/03/26 15:45:33;;;;;;;3.05;2.03;;;;;;;;;;5037256;28;20025;-57
2021/03/26 15:48:10;;;;;;;3.58;2.38;;;;;;;;;;5054194;28;20449;-57
2021/03/26 15:50:43;;;;;;;2.85;1.85;;;;;;;;;;5055223;28;20029;-57
2021/03/26 15:53:15;;;;;;;3.42;2.30;;;;;;;;;;5037284;28;20056;-59
2021/03/26 15:56:00;;;;;;;6.10;2.20;;;;;;;;;;5054174;28;20039;-59
2021/03/26 15:58:35;;;;;;;4.85;2.00;;;;;;;;;;5054950;28;20366;-57
2021/03/26 16:01:07;;;;;;;4.35;2.22;;;;;;;;;;5036250;28;20609;-58
2021/03/26 16:03:52;;;;;;;3.92;2.25;;;;;;;;;;5036599;28;20455;-58
2021/03/26 16:06:18;;;;;;;4.63;1.92;;;;;;;;;;5054464;28;20025;-58
2021/03/26 16:09:03;;;;;;;4.78;2.40;;;;;;;;;;5054530;28;20040;-58
2021/03/26 16:11:48;;;;;;;3.75;1.95;;;;;;;;;;5054113;28;20037;-58
2021/03/26 16:14:22;;;;;;;4.28;1.83;;;;;;;;;;5036260;28;20121;-58
2021/03/26 16:17:08;;;;;;;3.28;2.00;;;;;;;;;;5053849;28;20021;-58
2021/03/26 16:19:52;;;;;;;3.40;2.20;;;;;;;;;;5054268;28;20021;-58
2021/03/26 16:22:25;;;;;;;3.65;1.85;;;;;;;;;;5036280;28;20102;-58